KEUG/EUG METAR and TAF weather

Enter ICAO airport designator
Station Type Date Time Source
KEUG METAR 2021/03/06 03:54 UTC NOAA

KEUG 060354Z 13009KT 9SM -RA OVC032 06/04 A3003 RMK AO2 SLP171 P0004 T00610039


Station Type Date Time Source
KEUG Decoded METAR 2021/03/06 03:54 UTC NOAA

MAHLON SWEET FIELD, OR, United States (KEUG) 44-08N 123-13W 114M
Mar 05, 2021 - 10:54 PM EST / 2021.03.06 0354 UTC
Wind: from the SE (130 degrees) at 10 MPH (9 KT):0
Visibility: 9 mile(s):0
Sky conditions: overcast
Weather: light rain
Precipitation last hour: 0.04 inches
Temperature: 43.0 F (6.1 C)
Dew Point: 39.0 F (3.9 C)
Relative Humidity: 85%
Pressure (altimeter): 30.03 in. Hg (1016 hPa)
ob: KEUG 060354Z 13009KT 9SM -RA OVC032 06/04 A3003 RMK AO2 SLP171 P0004 T00610039
cycle: 4

Station Type Date Time Source
KEUG TAF 2021/03/05 20:10 UTC NOAA

TAF
AMD KEUG 052008Z 0520/0618 20009KT P6SM -RA SCT027 OVC050
TEMPO 0520/0523 BKN025 OVC050
FM060300 18006KT P6SM -SHRA SCT018 OVC035
FM061000 17005KT P6SM OVC024

Example: see airport list